createdAt,value
2022-12-08T00:02:31.053Z,95220.75
2022-12-08T00:05:35.595Z,95224.06
2022-12-08T00:08:39.981Z,95214.38
2022-12-08T00:11:25.950Z,95217.56
2022-12-08T00:14:11.648Z,95216.44
2022-12-08T00:16:58.275Z,95219.34
2022-12-08T00:19:45.088Z,95229.31
2022-12-08T00:22:32.398Z,95228.22
2022-12-08T00:25:18.233Z,95223.16
2022-12-08T00:28:04.031Z,95234.13
2022-12-08T00:30:50.023Z,95231.94
2022-12-08T00:33:36.223Z,95238.41
2022-12-08T00:36:21.952Z,95234.13
2022-12-08T00:39:07.882Z,95236.69
2022-12-08T00:42:13.268Z,95233.03
2022-12-08T00:44:59.330Z,95236.09
2022-12-08T00:47:44.931Z,95242.28
2022-12-08T00:50:31.809Z,95247.38
2022-12-08T00:53:17.830Z,95251.66
2022-12-08T00:56:03.745Z,95251.66
2022-12-08T00:58:49.836Z,95260.06
2022-12-08T01:01:36.184Z,95258.25
2022-12-08T01:04:22.121Z,95255.25
2022-12-08T01:07:08.409Z,95261.44
2022-12-08T01:09:54.109Z,95261.44
2022-12-08T01:12:40.310Z,95256.06
2022-12-08T01:15:26.326Z,95257.66
2022-12-08T01:18:12.486Z,95252.47
2022-12-08T01:21:23.762Z,95244.69
2022-12-08T01:24:20.984Z,95251.53
2022-12-08T01:27:07.136Z,95252.03
2022-12-08T01:29:53.163Z,95249.53
2022-12-08T01:32:39.021Z,95254.34
2022-12-08T01:35:24.958Z,95247.56
2022-12-08T01:38:11.035Z,95255.84
2022-12-08T01:40:56.919Z,95261.44
2022-12-08T01:44:21.438Z,95254.94
2022-12-08T01:47:07.484Z,95251.13
2022-12-08T01:49:53.804Z,95254.31
2022-12-08T01:52:45.998Z,95240.34
2022-12-08T01:55:47.752Z,95245.25
2022-12-08T01:58:40.511Z,95241.47
2022-12-08T02:01:26.985Z,95231.28
2022-12-08T02:04:13.245Z,95226.50
2022-12-08T02:07:03.592Z,95233.03
2022-12-08T02:09:53.887Z,95222.25
2022-12-08T02:12:40.046Z,95220.06
2022-12-08T02:15:41.186Z,95220.25
2022-12-08T02:18:40.846Z,95223.44
2022-12-08T02:21:56.733Z,95219.66
2022-12-08T02:25:07.421Z,95219.97
2022-12-08T02:28:03.947Z,95211.69
2022-12-08T02:31:05.442Z,95207.50
2022-12-08T02:34:12.091Z,95226.50
2022-12-08T02:37:05.691Z,95219.50
2022-12-08T02:39:55.461Z,95215.72
2022-12-08T02:42:45.064Z,95228.09
2022-12-08T02:45:32.251Z,95229.69
2022-12-08T02:48:18.317Z,95218.41
2022-12-08T02:51:04.884Z,95218.97
2022-12-08T02:53:50.892Z,95213.72
2022-12-08T02:57:02.224Z,95219.19
2022-12-08T02:59:54.178Z,95213.94
2022-12-08T03:03:17.783Z,95212.94
2022-12-08T03:06:05.692Z,95212.94
2022-12-08T03:08:52.132Z,95214.53
2022-12-08T03:11:57.583Z,95221.53
2022-12-08T03:14:48.714Z,95218.81
2022-12-08T03:17:35.823Z,95222.53
2022-12-08T03:20:24.039Z,95213.94
2022-12-08T03:23:12.562Z,95216.34
2022-12-08T03:26:04.381Z,95206.34
2022-12-08T03:28:50.728Z,95203.97
2022-12-08T03:31:40.713Z,95210.16
2022-12-08T03:34:28.555Z,95210.16
2022-12-08T03:37:14.883Z,95206.94
2022-12-08T03:40:00.930Z,95213.94
2022-12-08T03:42:46.960Z,95222.31
2022-12-08T03:45:32.900Z,95217.44
2022-12-08T03:48:18.730Z,95217.72
2022-12-08T03:51:04.545Z,95219.13
2022-12-08T03:53:50.853Z,95223.72
2022-12-08T03:56:38.431Z,95228.91
2022-12-08T03:59:24.632Z,95226.53
2022-12-08T04:02:10.625Z,95217.16
2022-12-08T04:04:56.470Z,95215.34
2022-12-08T04:07:42.237Z,95225.75
2022-12-08T04:10:27.999Z,95227.94
2022-12-08T04:13:13.818Z,95239.31
2022-12-08T04:15:59.753Z,95235.31
2022-12-08T04:18:45.770Z,95231.66
2022-12-08T04:21:31.810Z,95226.75
2022-12-08T04:24:17.872Z,95228.94
2022-12-08T04:27:03.812Z,95231.16
2022-12-08T04:29:49.835Z,95231.75
2022-12-08T04:32:35.577Z,95230.94
2022-12-08T04:35:21.503Z,95233.94
2022-12-08T04:38:07.527Z,95235.53
2022-12-08T04:40:53.091Z,95225.38
2022-12-08T04:43:39.039Z,95232.34
2022-12-08T04:46:25.058Z,95235.03
2022-12-08T04:49:10.878Z,95239.31
2022-12-08T04:51:56.684Z,95255.69
2022-12-08T04:54:42.362Z,95245.72
2022-12-08T04:57:28.317Z,95252.41
2022-12-08T05:00:14.565Z,95246.81
2022-12-08T05:03:00.373Z,95236.16
2022-12-08T05:05:46.656Z,95240.13
2022-12-08T05:08:32.621Z,95235.34
2022-12-08T05:11:19.674Z,95246.50
2022-12-08T05:14:05.873Z,95243.94
2022-12-08T05:16:52.084Z,95239.13
2022-12-08T05:19:38.141Z,95243.22
2022-12-08T05:22:24.212Z,95241.91
2022-12-08T05:25:10.032Z,95251.09
2022-12-08T05:28:17.586Z,95246.91
2022-12-08T05:31:03.179Z,95256.69
2022-12-08T05:33:52.296Z,95260.97
2022-12-08T05:36:38.225Z,95249.22
2022-12-08T05:39:24.282Z,95253.19
2022-12-08T05:42:10.238Z,95239.34
2022-12-08T05:44:56.268Z,95251.91
2022-12-08T05:47:42.366Z,95257.28
2022-12-08T05:50:28.143Z,95271.22
2022-12-08T05:53:17.729Z,95262.84
2022-12-08T05:56:03.880Z,95262.84
2022-12-08T05:58:49.989Z,95264.16
2022-12-08T06:01:36.017Z,95270.06
2022-12-08T06:04:22.267Z,95270.25
2022-12-08T06:07:14.559Z,95278.81
2022-12-08T06:10:03.749Z,95269.13
2022-12-08T06:12:49.900Z,95272.03
2022-12-08T06:15:36.987Z,95272.63
2022-12-08T06:18:23.051Z,95281.22
2022-12-08T06:21:11.055Z,95267.25
2022-12-08T06:23:58.771Z,95268.84
2022-12-08T06:26:46.200Z,95254.91
2022-12-08T06:29:32.007Z,95271.25
2022-12-08T06:32:19.926Z,95277.44
2022-12-08T06:35:09.273Z,95282.81
2022-12-08T06:37:55.108Z,95276.34
2022-12-08T06:40:41.074Z,95274.53
2022-12-08T06:43:27.278Z,95268.84
2022-12-08T06:46:15.527Z,95279.03
2022-12-08T06:49:01.415Z,95274.84
2022-12-08T06:51:55.141Z,95279.63
2022-12-08T06:54:40.936Z,95291.41
2022-12-08T06:57:26.723Z,95289.22
2022-12-08T07:00:13.042Z,95286.00
2022-12-08T07:02:59.222Z,95297.28
2022-12-08T07:05:45.190Z,95293.00
2022-12-08T07:08:31.408Z,95290.88
2022-12-08T07:11:21.572Z,95288.19
2022-12-08T07:14:08.470Z,95297.88
2022-12-08T07:16:54.525Z,95295.97
2022-12-08T07:19:40.335Z,95302.97
2022-12-08T07:22:25.954Z,95309.16
2022-12-08T07:25:11.636Z,95308.84
2022-12-08T07:27:57.390Z,95302.66
2022-12-08T07:30:43.195Z,95312.06
2022-12-08T07:33:29.345Z,95309.03
2022-12-08T07:36:15.522Z,95310.16
2022-12-08T07:39:01.556Z,95305.38
2022-12-08T07:41:47.507Z,95313.53
2022-12-08T07:44:33.353Z,95314.34
2022-12-08T07:47:19.327Z,95313.25
2022-12-08T07:50:05.922Z,95315.34
2022-12-08T07:52:52.104Z,95306.94
2022-12-08T07:55:44.545Z,95297.78
2022-12-08T07:58:30.513Z,95304.97
2022-12-08T08:01:35.105Z,95304.38
2022-12-08T08:04:21.261Z,95304.25
2022-12-08T08:07:07.415Z,95300.19
2022-12-08T08:09:53.461Z,95305.78
2022-12-08T08:12:39.687Z,95311.63
2022-12-08T08:15:26.049Z,95313.72
2022-12-08T08:18:12.512Z,95313.16
2022-12-08T08:21:06.612Z,95309.84
2022-12-08T08:24:05.887Z,95317.31
2022-12-08T08:26:55.236Z,95316.72
2022-12-08T08:29:41.099Z,95312.63
2022-12-08T08:32:27.547Z,95310.75
2022-12-08T08:35:13.816Z,95312.50
2022-12-08T08:37:59.922Z,95319.78
2022-12-08T08:40:46.065Z,95321.41
2022-12-08T08:43:37.760Z,95326.31
2022-12-08T08:46:23.947Z,95311.25
2022-12-08T08:49:10.080Z,95314.72
2022-12-08T08:51:55.842Z,95314.41
2022-12-08T08:54:41.707Z,95303.75
2022-12-08T08:57:27.649Z,95313.94
2022-12-08T09:00:14.489Z,95312.34
2022-12-08T09:03:00.785Z,95310.94
2022-12-08T09:05:46.860Z,95304.75
2022-12-08T09:08:32.666Z,95300.88
2022-12-08T09:11:18.883Z,95292.78
2022-12-08T09:14:06.179Z,95297.56
2022-12-08T09:16:52.196Z,95296.47
2022-12-08T09:19:38.369Z,95291.56
2022-12-08T09:22:26.150Z,95282.19
2022-12-08T09:25:11.880Z,95287.16
2022-12-08T09:27:57.620Z,95290.34
2022-12-08T09:30:43.467Z,95285.16
2022-12-08T09:33:29.538Z,95283.56
2022-12-08T09:36:15.648Z,95277.25
2022-12-08T09:39:01.790Z,95280.94
2022-12-08T09:41:54.923Z,95278.75
2022-12-08T09:44:57.303Z,95282.09
2022-12-08T09:47:55.665Z,95267.13
2022-12-08T09:50:54.954Z,95258.88
2022-12-08T09:53:45.384Z,95251.28
2022-12-08T09:56:33.773Z,95253.06
2022-12-08T09:59:32.536Z,95241.50
2022-12-08T10:02:26.830Z,95238.66
2022-12-08T10:05:15.045Z,95240.91
2022-12-08T10:08:03.838Z,95237.31
2022-12-08T10:11:00.193Z,95229.41
2022-12-08T10:13:55.325Z,95223.06
2022-12-08T10:16:42.871Z,95225.63
2022-12-08T10:19:29.189Z,95225.50
2022-12-08T10:22:25.223Z,95236.47
2022-12-08T10:25:38.319Z,95212.47
2022-12-08T10:28:24.398Z,95218.88
2022-12-08T10:31:17.385Z,95211.88
2022-12-08T10:34:18.600Z,95215.69
2022-12-08T10:37:09.588Z,95214.09
2022-12-08T10:40:13.589Z,95215.19
2022-12-08T10:42:59.970Z,95209.78
2022-12-08T10:45:46.187Z,95195.97
2022-12-08T10:48:32.070Z,95199.28
2022-12-08T10:51:30.032Z,95192.31
2022-12-08T10:54:33.631Z,95190.09
2022-12-08T10:57:23.790Z,95191.50
2022-12-08T11:00:15.399Z,95183.41
2022-12-08T11:03:05.002Z,95185.16
2022-12-08T11:05:51.046Z,95188.50
2022-12-08T11:08:45.612Z,95168.34
2022-12-08T11:11:58.745Z,95175.31
2022-12-08T11:15:16.385Z,95165.16
2022-12-08T11:18:12.786Z,95162.94
2022-12-08T11:21:02.601Z,95146.75
2022-12-08T11:23:50.337Z,95150.41
2022-12-08T11:26:36.703Z,95149.47
2022-12-08T11:29:22.794Z,95133.91
2022-12-08T11:32:13.495Z,95140.16
2022-12-08T11:35:03.080Z,95134.63
2022-12-08T11:37:49.336Z,95136.41
2022-12-08T11:40:38.388Z,95136.72
2022-12-08T11:43:36.983Z,95132.28
2022-12-08T11:46:34.489Z,95137.53
2022-12-08T11:49:20.827Z,95131.03
2022-12-08T11:52:28.060Z,95137.22
2022-12-08T11:55:37.326Z,95127.53
2022-12-08T11:58:32.052Z,95131.03
2022-12-08T12:01:24.691Z,95128.81
2022-12-08T12:04:30.239Z,95126.59
2022-12-08T12:07:28.170Z,95119.44
2022-12-08T12:10:30.751Z,95112.28
2022-12-08T12:13:41.820Z,95098.66
2022-12-08T12:16:51.266Z,95092.31
2022-12-08T12:19:39.831Z,95101.50
2022-12-08T12:22:27.039Z,95091.16
2022-12-08T12:25:22.414Z,95092.59
2022-12-08T12:28:09.298Z,95085.75
2022-12-08T12:31:06.044Z,95085.41
2022-12-08T12:33:54.556Z,95077.78
2022-12-08T12:36:56.188Z,95090.19
2022-12-08T12:40:03.290Z,95083.81
2022-12-08T12:42:55.434Z,95087.66
2022-12-08T12:45:45.834Z,95091.81
2022-12-08T12:48:31.622Z,95097.53
2022-12-08T12:51:36.825Z,95105.34
2022-12-08T12:54:24.873Z,95107.22
2022-12-08T12:57:10.604Z,95100.50
2022-12-08T12:59:56.409Z,95104.66
2022-12-08T13:02:45.229Z,95110.53
2022-12-08T13:05:35.226Z,95107.03
2022-12-08T13:08:26.688Z,95105.44
2022-12-08T13:11:13.106Z,95103.06
2022-12-08T13:14:04.216Z,95090.66
2022-12-08T13:16:54.093Z,95087.47
2022-12-08T13:19:40.530Z,95092.72
2022-12-08T13:23:10.031Z,95085.59
2022-12-08T13:26:23.734Z,95078.41
2022-12-08T13:29:17.937Z,95085.75
2022-12-08T13:32:39.029Z,95084.50
2022-12-08T13:35:35.887Z,95078.91
2022-12-08T13:38:22.930Z,95082.09
2022-12-08T13:41:32.778Z,95089.75
2022-12-08T13:45:18.741Z,95098.31
2022-12-08T13:57:36.322Z,95096.06
2022-12-08T14:00:27.459Z,95092.25
2022-12-08T14:03:13.530Z,95095.31
2022-12-08T14:06:15.378Z,95097.66
2022-12-08T14:09:10.427Z,95112.47
2022-12-08T14:12:08.181Z,95116.44
2022-12-08T14:15:04.234Z,95122.66
2022-12-08T14:17:57.297Z,95132.69
2022-12-08T14:21:18.916Z,95127.25
2022-12-08T14:23:49.161Z,95117.41
2022-12-08T14:26:35.464Z,95118.66
2022-12-08T14:29:34.072Z,95122.66
2022-12-08T14:32:32.661Z,95126.94
2022-12-08T14:35:24.068Z,95126.63
2022-12-08T14:38:14.320Z,95118.53
2022-12-08T14:41:03.456Z,95113.56
2022-12-08T14:43:59.234Z,95112.00
2022-12-08T14:47:07.078Z,95103.56
2022-12-08T14:49:53.167Z,95105.63
2022-12-08T14:52:43.795Z,95101.97
2022-12-08T14:55:35.871Z,95109.28
2022-12-08T14:58:29.379Z,95114.56
2022-12-08T15:01:18.338Z,95115.19
2022-12-08T15:04:10.361Z,95122.81
2022-12-08T15:07:17.635Z,95124.25
2022-12-08T15:10:32.043Z,95118.69
2022-12-08T15:13:19.569Z,95120.13
2022-12-08T15:16:28.129Z,95117.25
2022-12-08T15:19:33.614Z,95118.22
2022-12-08T15:22:22.920Z,95126.00
2022-12-08T15:25:13.904Z,95134.28
2022-12-08T15:27:59.782Z,95134.09
2022-12-08T15:30:46.407Z,95125.50
2022-12-08T15:33:32.654Z,95130.91
2022-12-08T15:36:18.798Z,95143.31
2022-12-08T15:39:06.872Z,95141.59
2022-12-08T15:41:52.872Z,95132.03
2022-12-08T15:44:38.934Z,95148.25
2022-12-08T15:47:25.114Z,95147.78
2022-12-08T15:50:21.857Z,95150.13
2022-12-08T15:53:10.548Z,95154.56
2022-12-08T15:59:06.167Z,95166.00
2022-12-08T16:01:52.751Z,95167.44
2022-12-08T16:07:45.561Z,95167.25
2022-12-08T16:10:52.239Z,95171.06
2022-12-08T16:13:59.542Z,95184.91
2022-12-08T16:16:54.158Z,95194.13
2022-12-08T16:19:40.441Z,95189.34
2022-12-08T16:26:15.689Z,95181.34
2022-12-08T16:28:53.962Z,95177.41
2022-12-08T16:31:40.441Z,95193.59
2022-12-08T16:34:26.383Z,95193.44
2022-12-08T16:37:21.417Z,95189.44
2022-12-08T16:40:08.365Z,95189.44
2022-12-08T16:42:54.324Z,95193.91
2022-12-08T16:45:44.934Z,95199.28
2022-12-08T16:48:31.179Z,95194.50
2022-12-08T16:51:23.407Z,95200.41
2022-12-08T16:54:12.605Z,95203.72
2022-12-08T16:56:58.959Z,95203.53
2022-12-08T16:59:44.869Z,95204.34
2022-12-08T17:02:30.966Z,95200.34
2022-12-08T17:05:19.206Z,95199.53
2022-12-08T17:08:05.520Z,95192.41
2022-12-08T17:11:07.425Z,95201.41
2022-12-08T17:13:53.701Z,95196.16
2022-12-08T17:16:39.689Z,95195.19
2022-12-08T17:19:25.678Z,95188.34
2022-12-08T17:22:11.915Z,95188.34
2022-12-08T17:24:58.110Z,95198.16
2022-12-08T17:27:43.959Z,95201.47
2022-12-08T17:30:29.775Z,95211.00
2022-12-08T17:33:15.353Z,95212.91
2022-12-08T17:36:01.176Z,95208.59
2022-12-08T17:38:48.027Z,95219.56
2022-12-08T17:41:33.895Z,95219.56
2022-12-08T17:44:20.317Z,95210.19
2022-12-08T17:47:06.190Z,95221.94
2022-12-08T17:49:52.670Z,95220.34
2022-12-08T17:52:38.536Z,95225.75
2022-12-08T17:55:24.216Z,95215.75
2022-12-08T17:58:09.953Z,95215.75
2022-12-08T18:00:55.822Z,95224.00
2022-12-08T18:03:41.586Z,95231.16
2022-12-08T18:06:31.233Z,95236.56
2022-12-08T18:09:17.710Z,95238.63
2022-12-08T18:12:04.321Z,95231.94
2022-12-08T18:14:52.120Z,95243.53
2022-12-08T18:17:41.376Z,95246.72
2022-12-08T18:20:27.759Z,95243.53
2022-12-08T18:23:14.405Z,95255.59
2022-12-08T18:26:00.349Z,95251.16
2022-12-08T18:28:46.497Z,95251.16
2022-12-08T18:31:32.556Z,95263.53
2022-12-08T18:34:21.748Z,95265.94
2022-12-08T18:37:08.921Z,95256.53
2022-12-08T18:39:54.892Z,95261.34
2022-12-08T18:42:41.173Z,95271.53
2022-12-08T18:45:27.311Z,95267.22
2022-12-08T18:48:13.163Z,95269.31
2022-12-08T18:50:59.377Z,95267.72
2022-12-08T18:53:46.260Z,95270.28
2022-12-08T18:56:33.928Z,95267.88
2022-12-08T18:59:20.399Z,95263.28
2022-12-08T19:02:06.637Z,95261.69
2022-12-08T19:04:55.692Z,95268.56
2022-12-08T19:07:42.786Z,95265.88
2022-12-08T19:10:29.409Z,95273.97
2022-12-08T19:13:15.559Z,95274.47
2022-12-08T19:16:01.761Z,95277.66
2022-12-08T19:18:47.767Z,95280.16
2022-12-08T19:21:34.156Z,95294.44
2022-12-08T19:24:20.107Z,95293.16
2022-12-08T19:27:06.341Z,95284.88
2022-12-08T19:29:52.448Z,95284.88
2022-12-08T19:32:38.250Z,95288.06
2022-12-08T19:35:24.047Z,95276.31
2022-12-08T19:38:10.132Z,95283.28
2022-12-08T19:41:14.349Z,95288.06
2022-12-08T19:44:18.661Z,95287.09
2022-12-08T19:47:05.018Z,95276.31
2022-12-08T19:49:52.142Z,95270.13
2022-12-08T19:52:38.327Z,95276.13
2022-12-08T19:55:25.504Z,95281.72
2022-12-08T19:58:11.467Z,95283.13
2022-12-08T20:00:57.495Z,95283.53
2022-12-08T20:03:43.868Z,95290.91
2022-12-08T20:06:29.864Z,95280.72
2022-12-08T20:09:16.355Z,95282.00
2022-12-08T20:12:02.119Z,95285.50
2022-12-08T20:14:48.200Z,95286.78
2022-12-08T20:17:35.229Z,95294.06
2022-12-08T20:20:22.500Z,95286.47
2022-12-08T20:23:24.268Z,95247.25
2022-12-08T20:26:14.111Z,95236.25
2022-12-08T20:29:01.638Z,95284.25
2022-12-08T20:31:48.459Z,95268.94
2022-12-08T20:34:35.312Z,95303.66
2022-12-08T20:37:21.639Z,95295.66
2022-12-08T20:40:08.963Z,95306.84
2022-12-08T20:42:55.569Z,95314.94
2022-12-08T20:45:41.828Z,95310.66
2022-12-08T20:48:28.592Z,95308.25
2022-12-08T20:51:19.905Z,95313.66
2022-12-08T20:54:06.991Z,95310.16
2022-12-08T20:56:53.436Z,95313.47
2022-12-08T20:59:40.485Z,95315.66
2022-12-08T21:02:27.704Z,95316.91
2022-12-08T21:05:14.237Z,95314.50
2022-12-08T21:08:01.008Z,95314.31
2022-12-08T21:10:54.407Z,95312.25
2022-12-08T21:13:43.487Z,95327.34
2022-12-08T21:16:30.646Z,95327.34
2022-12-08T21:19:18.535Z,95336.91
2022-12-08T21:22:05.020Z,95330.09
2022-12-08T21:24:51.795Z,95321.69
2022-12-08T21:27:39.160Z,95312.97
2022-12-08T21:30:25.209Z,95318.84
2022-12-08T21:33:11.215Z,95319.66
2022-12-08T21:36:16.501Z,95324.44
2022-12-08T21:39:02.934Z,95330.03
2022-12-08T21:42:08.690Z,95325.44
2022-12-08T21:44:54.887Z,95314.94
2022-12-08T21:47:41.232Z,95318.25
2022-12-08T21:50:27.263Z,95315.84
2022-12-08T21:53:13.165Z,95310.28
2022-12-08T21:55:59.159Z,95303.91
2022-12-08T21:58:45.557Z,95310.50
2022-12-08T22:01:32.186Z,95320.94
2022-12-08T22:04:19.543Z,95309.78
2022-12-08T22:07:09.473Z,95316.41
2022-12-08T22:09:55.777Z,95312.22
2022-12-08T22:12:41.731Z,95309.66
2022-12-08T22:15:31.071Z,95315.84
2022-12-08T22:18:19.374Z,95326.03
2022-12-08T22:21:15.460Z,95326.81
2022-12-08T22:24:02.625Z,95323.81
2022-12-08T22:26:49.526Z,95328.78
2022-12-08T22:29:35.638Z,95325.00
2022-12-08T22:32:22.358Z,95326.59
2022-12-08T22:35:09.216Z,95324.50
2022-12-08T22:37:55.423Z,95326.59
2022-12-08T22:40:41.851Z,95328.28
2022-12-08T22:43:28.720Z,95330.38
2022-12-08T22:46:17.237Z,95321.78
2022-12-08T22:49:03.243Z,95313.41
2022-12-08T22:51:49.275Z,95314.81
2022-12-08T22:54:35.136Z,95303.84
2022-12-08T22:57:21.103Z,95307.44
2022-12-08T23:00:07.857Z,95306.44
2022-12-08T23:02:54.267Z,95313.44
2022-12-08T23:05:41.037Z,95308.03
2022-12-08T23:08:27.198Z,95310.75
2022-12-08T23:11:13.596Z,95311.84
2022-12-08T23:14:00.622Z,95306.44
2022-12-08T23:16:47.194Z,95315.84
2022-12-08T23:19:36.562Z,95315.66
2022-12-08T23:22:22.478Z,95320.44
2022-12-08T23:25:09.063Z,95306.44
2022-12-08T23:27:55.200Z,95320.63
2022-12-08T23:30:41.831Z,95315.03
2022-12-08T23:33:28.186Z,95320.03
2022-12-08T23:36:15.179Z,95317.13
2022-12-08T23:39:01.363Z,95319.22
2022-12-08T23:41:47.296Z,95312.84
2022-12-08T23:44:33.224Z,95321.44
2022-12-08T23:47:19.614Z,95306.34
2022-12-08T23:50:07.144Z,95309.53
2022-12-08T23:52:53.407Z,95306.44
2022-12-08T23:55:39.267Z,95311.25
2022-12-08T23:58:25.038Z,95314.44
